createdAt,value
2017-06-25T00:00:32.492Z,100
2017-06-25T00:01:33.215Z,100
2017-06-25T00:02:33.941Z,100
2017-06-25T00:03:34.667Z,100
2017-06-25T00:04:35.642Z,100
2017-06-25T00:05:36.367Z,100
2017-06-25T00:06:37.091Z,100
2017-06-25T00:07:37.819Z,100
2017-06-25T00:09:54.383Z,100
2017-06-25T00:10:55.105Z,100
2017-06-25T00:11:55.830Z,100
2017-06-25T00:12:56.556Z,100
2017-06-25T00:13:57.284Z,100
2017-06-25T00:14:58.258Z,100
2017-06-25T00:15:58.983Z,100
2017-06-25T00:16:59.706Z,100
2017-06-25T00:18:00.431Z,100
2017-06-25T00:19:01.155Z,100
2017-06-25T00:20:02.133Z,100
2017-06-25T00:21:02.858Z,100
2017-06-25T00:22:03.582Z,100
2017-06-25T00:23:04.304Z,100
2017-06-25T00:24:05.031Z,100
2017-06-25T00:25:06.007Z,100
2017-06-25T00:26:06.756Z,100
2017-06-25T00:27:07.481Z,100
2017-06-25T00:28:08.206Z,100
2017-06-25T00:29:08.930Z,100
2017-06-25T00:30:09.904Z,100
2017-06-25T00:31:10.630Z,100
2017-06-25T00:32:11.353Z,100
2017-06-25T00:33:12.077Z,100
2017-06-25T00:34:12.804Z,100
2017-06-25T00:35:13.831Z,100
2017-06-25T00:36:14.556Z,100
2017-06-25T00:37:15.282Z,100
2017-06-25T00:38:16.032Z,100
2017-06-25T00:39:16.754Z,100
2017-06-25T00:40:17.732Z,100
2017-06-25T00:41:18.458Z,100
2017-06-25T00:42:19.180Z,100
2017-06-25T00:43:19.904Z,100
2017-06-25T00:44:20.630Z,100
2017-06-25T00:45:21.605Z,100
2017-06-25T00:46:22.331Z,100
2017-06-25T00:47:23.057Z,100
2017-06-25T00:48:23.778Z,100
2017-06-25T00:49:24.505Z,100
2017-06-25T00:50:25.478Z,100
2017-06-25T00:51:26.202Z,100
2017-06-25T00:52:26.927Z,100
2017-06-25T00:53:27.649Z,100
2017-06-25T00:54:28.379Z,100
2017-06-25T00:55:29.358Z,100
2017-06-25T00:56:30.073Z,100
2017-06-25T00:57:30.800Z,100
2017-06-25T00:58:31.550Z,100
2017-06-25T00:59:32.276Z,100
2017-06-25T01:00:33.274Z,100
2017-06-25T01:01:34.001Z,100
2017-06-25T01:02:34.726Z,100
2017-06-25T01:03:35.451Z,100
2017-06-25T01:04:36.174Z,100
2017-06-25T01:05:37.153Z,100
2017-06-25T01:06:37.871Z,100
2017-06-25T01:07:38.600Z,100
2017-06-25T01:08:39.328Z,100
2017-06-25T01:09:40.049Z,100
2017-06-25T01:10:41.075Z,100
2017-06-25T01:11:41.800Z,100
2017-06-25T01:12:42.521Z,100
2017-06-25T01:13:43.245Z,100
2017-06-25T01:14:43.969Z,100
2017-06-25T01:15:44.944Z,100
2017-06-25T01:16:45.670Z,100
2017-06-25T01:17:46.392Z,100
2017-06-25T01:18:47.117Z,100
2017-06-25T01:19:47.841Z,100
2017-06-25T01:20:48.819Z,100
2017-06-25T01:21:49.543Z,100
2017-06-25T01:22:50.265Z,100
2017-06-25T01:23:50.991Z,100
2017-06-25T01:24:51.717Z,100
2017-06-25T01:25:52.693Z,100
2017-06-25T01:26:53.421Z,100
2017-06-25T01:27:54.168Z,100
2017-06-25T01:28:54.893Z,100
2017-06-25T01:29:55.619Z,100
2017-06-25T01:30:56.592Z,100
2017-06-25T01:31:57.319Z,100
2017-06-25T01:32:58.044Z,100
2017-06-25T01:33:58.767Z,100
2017-06-25T01:34:59.492Z,100
2017-06-25T01:36:00.467Z,100
2017-06-25T01:37:01.215Z,100
2017-06-25T01:38:01.937Z,100
2017-06-25T01:39:02.664Z,100
2017-06-25T01:40:03.413Z,100
2017-06-25T01:41:04.411Z,100
2017-06-25T01:42:05.131Z,100
2017-06-25T01:43:05.858Z,100
2017-06-25T01:44:06.584Z,100
2017-06-25T01:45:07.305Z,100
2017-06-25T01:46:08.277Z,100
2017-06-25T01:47:09.001Z,100
2017-06-25T01:48:09.726Z,100
2017-06-25T01:49:10.451Z,100
2017-06-25T01:50:11.174Z,100
2017-06-25T01:51:12.148Z,100
2017-06-25T01:52:12.870Z,100
2017-06-25T01:53:13.598Z,100
2017-06-25T01:54:14.319Z,100
2017-06-25T01:55:15.047Z,100
2017-06-25T01:56:16.015Z,100
2017-06-25T01:57:16.740Z,100
2017-06-25T01:58:17.467Z,100
2017-06-25T01:59:18.189Z,100
2017-06-25T02:00:18.915Z,100
2017-06-25T02:01:19.887Z,100
2017-06-25T02:02:20.613Z,100
2017-06-25T02:03:21.336Z,100
2017-06-25T02:04:22.062Z,100
2017-06-25T02:05:22.785Z,100
2017-06-25T02:06:23.761Z,100
2017-06-25T02:07:24.485Z,100
2017-06-25T02:08:25.213Z,100
2017-06-25T02:09:25.962Z,100
2017-06-25T02:10:26.685Z,100
2017-06-25T02:11:27.709Z,100
2017-06-25T02:12:28.434Z,100
2017-06-25T02:13:29.160Z,100
2017-06-25T02:14:29.882Z,100
2017-06-25T02:15:30.608Z,100
2017-06-25T02:16:31.587Z,100
2017-06-25T02:17:32.307Z,100
2017-06-25T02:18:33.030Z,100
2017-06-25T02:19:33.755Z,100
2017-06-25T02:20:34.479Z,100
2017-06-25T02:21:35.458Z,100
2017-06-25T02:22:36.181Z,100
2017-06-25T02:23:36.903Z,100
2017-06-25T02:24:37.629Z,100
2017-06-25T02:25:38.353Z,100
2017-06-25T02:26:39.329Z,100
2017-06-25T02:27:40.054Z,100
2017-06-25T02:28:40.777Z,100
2017-06-25T02:29:41.501Z,100
2017-06-25T02:30:42.226Z,100
2017-06-25T02:31:43.203Z,100
2017-06-25T02:32:43.925Z,100
2017-06-25T02:33:44.650Z,100
2017-06-25T02:34:45.374Z,100
2017-06-25T02:35:46.100Z,100
2017-06-25T02:36:47.073Z,100
2017-06-25T02:37:47.818Z,100
2017-06-25T02:38:48.547Z,100
2017-06-25T02:39:49.268Z,100
2017-06-25T02:40:49.995Z,100
2017-06-25T02:41:50.967Z,100
2017-06-25T02:42:51.695Z,100
2017-06-25T02:43:52.417Z,100
2017-06-25T02:44:53.143Z,100
2017-06-25T02:45:53.892Z,100
2017-06-25T02:46:54.865Z,100
2017-06-25T02:47:55.593Z,100
2017-06-25T02:48:56.316Z,100
2017-06-25T02:49:57.045Z,100
2017-06-25T02:50:57.795Z,100
2017-06-25T02:51:58.794Z,100
2017-06-25T02:52:59.522Z,100
2017-06-25T02:54:00.248Z,100
2017-06-25T02:55:00.974Z,100
2017-06-25T02:56:01.700Z,100
2017-06-25T02:57:02.677Z,100
2017-06-25T02:58:03.401Z,100
2017-06-25T02:59:04.125Z,100
2017-06-25T03:00:04.848Z,100
2017-06-25T03:01:05.579Z,100
2017-06-25T03:02:06.553Z,100
2017-06-25T03:03:07.279Z,100
2017-06-25T03:04:08.007Z,100
2017-06-25T03:05:08.733Z,100
2017-06-25T03:06:09.482Z,100
2017-06-25T03:07:10.462Z,100
2017-06-25T03:08:11.189Z,100
2017-06-25T03:09:11.915Z,100
2017-06-25T03:10:12.646Z,100
2017-06-25T03:11:13.369Z,100
2017-06-25T03:12:14.395Z,100
2017-06-25T03:13:15.146Z,100
2017-06-25T03:14:15.896Z,100
2017-06-25T03:15:16.648Z,100
2017-06-25T03:16:17.403Z,100
2017-06-25T03:17:18.379Z,100
2017-06-25T03:18:19.104Z,100
2017-06-25T03:19:19.856Z,100
2017-06-25T03:20:20.584Z,100
2017-06-25T03:21:21.313Z,100
2017-06-25T03:22:22.292Z,100
2017-06-25T03:23:23.020Z,100
2017-06-25T03:24:23.745Z,100
2017-06-25T03:25:24.473Z,100
2017-06-25T03:26:25.201Z,100
2017-06-25T03:27:26.180Z,100
2017-06-25T03:28:26.927Z,100
2017-06-25T03:29:27.658Z,100
2017-06-25T03:30:28.382Z,100
2017-06-25T03:31:29.109Z,100
2017-06-25T03:32:30.086Z,100
2017-06-25T03:33:30.817Z,100
2017-06-25T03:34:31.542Z,100
2017-06-25T03:35:32.270Z,100
2017-06-25T03:36:32.996Z,100
2017-06-25T03:37:33.975Z,100
2017-06-25T03:38:34.702Z,100
2017-06-25T03:39:35.432Z,100
2017-06-25T03:40:36.164Z,100
2017-06-25T03:41:36.889Z,100
2017-06-25T03:42:37.893Z,100
2017-06-25T03:43:38.622Z,100
2017-06-25T03:44:39.352Z,100
2017-06-25T03:45:40.080Z,100
2017-06-25T03:46:40.803Z,100
2017-06-25T03:47:41.785Z,100
2017-06-25T03:48:42.512Z,100
2017-06-25T03:49:43.237Z,100
2017-06-25T03:50:43.966Z,100
2017-06-25T03:51:44.693Z,100
2017-06-25T03:52:45.671Z,100
2017-06-25T03:53:46.400Z,100
2017-06-25T03:54:47.129Z,100
2017-06-25T03:55:47.858Z,100
2017-06-25T03:56:48.613Z,100
2017-06-25T03:57:49.591Z,100
2017-06-25T03:58:50.319Z,100
2017-06-25T03:59:51.046Z,100
2017-06-25T04:00:51.777Z,100
2017-06-25T04:01:52.504Z,100
2017-06-25T04:02:53.482Z,100
2017-06-25T04:03:54.210Z,100
2017-06-25T04:04:54.937Z,100
2017-06-25T04:05:55.670Z,100
2017-06-25T04:06:56.396Z,100
2017-06-25T04:07:57.373Z,100
2017-06-25T04:08:58.099Z,100
2017-06-25T04:09:58.827Z,100
2017-06-25T04:10:59.560Z,100
2017-06-25T04:12:00.282Z,100
2017-06-25T04:13:01.261Z,100
2017-06-25T04:14:01.990Z,100
2017-06-25T04:15:02.741Z,100
2017-06-25T04:16:03.469Z,100
2017-06-25T04:17:04.199Z,100
2017-06-25T04:18:05.178Z,100
2017-06-25T04:19:05.907Z,100
2017-06-25T04:20:06.636Z,100
2017-06-25T04:21:07.365Z,100
2017-06-25T04:22:08.093Z,100
2017-06-25T04:23:09.071Z,100
2017-06-25T04:24:09.802Z,100
2017-06-25T04:25:10.532Z,100
2017-06-25T04:26:11.262Z,100
2017-06-25T04:27:12.015Z,100
2017-06-25T04:28:12.996Z,100
2017-06-25T04:29:13.724Z,100
2017-06-25T04:30:14.450Z,100
2017-06-25T04:31:15.184Z,100
2017-06-25T04:32:15.913Z,100
2017-06-25T04:33:16.892Z,100
2017-06-25T04:34:17.619Z,100
2017-06-25T04:35:18.349Z,100
2017-06-25T04:36:19.077Z,100
2017-06-25T04:37:19.807Z,100
2017-06-25T04:38:20.782Z,100
2017-06-25T04:39:21.513Z,100
2017-06-25T04:40:22.237Z,100
2017-06-25T04:41:22.965Z,100
2017-06-25T04:42:23.717Z,100
2017-06-25T04:43:24.721Z,100
2017-06-25T04:44:25.450Z,100
2017-06-25T04:45:26.177Z,100
2017-06-25T04:46:26.906Z,100
2017-06-25T04:47:27.634Z,100
2017-06-25T04:48:28.614Z,100
2017-06-25T04:49:29.339Z,100
2017-06-25T04:50:30.067Z,100
2017-06-25T04:51:30.795Z,100
2017-06-25T04:52:31.524Z,100
2017-06-25T04:53:32.502Z,100
2017-06-25T04:54:33.230Z,100
2017-06-25T04:55:33.958Z,100
2017-06-25T04:56:34.688Z,100
2017-06-25T04:57:35.415Z,100
2017-06-25T04:58:36.394Z,100
2017-06-25T04:59:37.122Z,100
2017-06-25T05:00:37.850Z,100
2017-06-25T05:01:38.576Z,100
2017-06-25T05:02:39.305Z,100
2017-06-25T05:03:40.284Z,100
2017-06-25T05:04:41.012Z,100
2017-06-25T05:05:41.741Z,100
2017-06-25T05:06:42.471Z,100
2017-06-25T05:07:43.199Z,100
2017-06-25T05:08:44.181Z,100
2017-06-25T05:09:44.911Z,100
2017-06-25T05:10:45.639Z,100
2017-06-25T05:11:46.395Z,100
2017-06-25T05:12:47.121Z,100
2017-06-25T05:13:48.103Z,100
2017-06-25T05:14:48.830Z,100
2017-06-25T05:15:49.561Z,100
2017-06-25T05:16:50.283Z,100
2017-06-25T05:17:51.012Z,100
2017-06-25T05:18:52.043Z,100
2017-06-25T05:19:52.767Z,100
2017-06-25T05:20:53.499Z,100
2017-06-25T05:21:54.254Z,100
2017-06-25T05:22:54.981Z,100
2017-06-25T05:23:55.958Z,100
2017-06-25T05:24:56.709Z,100
2017-06-25T05:25:57.436Z,100
2017-06-25T05:26:58.165Z,100
2017-06-25T05:27:58.916Z,100
2017-06-25T05:28:59.895Z,100
2017-06-25T05:30:00.620Z,100
2017-06-25T05:31:01.349Z,100
2017-06-25T05:32:02.080Z,100
2017-06-25T05:33:02.810Z,100
2017-06-25T05:34:03.786Z,100
2017-06-25T05:35:04.540Z,100
2017-06-25T05:36:05.269Z,100
2017-06-25T05:37:05.996Z,100
2017-06-25T05:38:06.751Z,100
2017-06-25T05:39:07.729Z,100
2017-06-25T05:40:08.454Z,100
2017-06-25T05:41:09.186Z,100
2017-06-25T05:42:09.914Z,100
2017-06-25T05:43:10.641Z,100
2017-06-25T05:44:11.623Z,100
2017-06-25T05:45:12.349Z,100
2017-06-25T05:46:13.105Z,100
2017-06-25T05:47:13.834Z,100
2017-06-25T05:48:14.564Z,100
2017-06-25T05:49:15.543Z,100
2017-06-25T05:50:16.272Z,100
2017-06-25T05:51:17.001Z,100
2017-06-25T05:52:17.729Z,100
2017-06-25T05:53:18.463Z,100
2017-06-25T05:54:19.442Z,100
2017-06-25T05:55:20.173Z,100
2017-06-25T05:56:20.929Z,100
2017-06-25T05:57:21.636Z,100
2017-06-25T05:58:22.388Z,100
2017-06-25T05:59:23.370Z,100
2017-06-25T06:00:24.124Z,100
2017-06-25T06:01:24.850Z,100
2017-06-25T06:02:25.583Z,100
2017-06-25T06:03:26.314Z,100
2017-06-25T06:04:27.296Z,100
2017-06-25T06:05:28.025Z,100
2017-06-25T06:06:28.758Z,100
2017-06-25T06:07:29.489Z,100
2017-06-25T06:08:30.224Z,100
2017-06-25T06:09:31.202Z,100
2017-06-25T06:10:31.929Z,100
2017-06-25T06:11:32.663Z,100
2017-06-25T06:12:33.393Z,100
2017-06-25T06:13:34.121Z,100
2017-06-25T06:14:35.131Z,100
2017-06-25T06:15:35.863Z,100
2017-06-25T06:16:36.615Z,100
2017-06-25T06:17:37.362Z,100
2017-06-25T06:18:38.081Z,100
2017-06-25T06:19:39.062Z,100
2017-06-25T06:20:39.793Z,100
2017-06-25T06:21:40.529Z,100
2017-06-25T06:22:41.260Z,100
2017-06-25T06:23:41.991Z,100
2017-06-25T06:24:42.977Z,100
2017-06-25T06:25:43.733Z,100
2017-06-25T06:26:44.462Z,100
2017-06-25T06:27:45.195Z,100
2017-06-25T06:28:45.930Z,100
2017-06-25T06:29:46.909Z,100
2017-06-25T06:30:47.641Z,100
2017-06-25T06:31:48.379Z,100
2017-06-25T06:32:49.108Z,100
2017-06-25T06:33:49.840Z,100
2017-06-25T06:34:50.823Z,100
2017-06-25T06:35:51.557Z,100
2017-06-25T06:36:52.288Z,100
2017-06-25T06:37:53.023Z,100
2017-06-25T06:38:53.752Z,100
2017-06-25T06:39:54.785Z,100
2017-06-25T06:40:55.518Z,100
2017-06-25T06:41:56.251Z,100
2017-06-25T06:42:56.986Z,100
2017-06-25T06:43:57.716Z,100
2017-06-25T06:44:58.698Z,100
2017-06-25T06:45:59.429Z,100
2017-06-25T06:47:00.162Z,100
2017-06-25T06:48:00.891Z,100
2017-06-25T06:49:01.622Z,100
2017-06-25T06:50:02.629Z,100
2017-06-25T06:51:03.360Z,100
2017-06-25T06:52:04.090Z,100
2017-06-25T06:53:04.822Z,100
2017-06-25T06:54:05.577Z,100
2017-06-25T06:55:06.557Z,100
2017-06-25T06:56:07.290Z,100
2017-06-25T06:57:08.021Z,100
2017-06-25T06:58:08.752Z,100
2017-06-25T06:59:09.482Z,100
2017-06-25T07:00:10.467Z,100
2017-06-25T07:01:11.200Z,100
2017-06-25T07:02:11.930Z,100
2017-06-25T07:03:12.662Z,100
2017-06-25T07:04:13.393Z,100
2017-06-25T07:05:14.375Z,100
2017-06-25T07:06:15.108Z,100
2017-06-25T07:07:15.841Z,99
2017-06-25T07:08:16.572Z,100
2017-06-25T07:09:17.327Z,99
2017-06-25T07:10:18.331Z,99
2017-06-25T07:11:19.066Z,99
2017-06-25T07:12:19.795Z,99
2017-06-25T07:13:20.528Z,100
2017-06-25T07:14:21.260Z,99
2017-06-25T07:15:22.241Z,99
2017-06-25T07:16:22.975Z,99
2017-06-25T07:17:23.705Z,98
2017-06-25T07:18:24.436Z,98
2017-06-25T07:19:25.168Z,99
2017-06-25T07:20:26.175Z,98
2017-06-25T07:21:26.929Z,98
2017-06-25T07:22:27.663Z,99
2017-06-25T07:23:28.393Z,99
2017-06-25T07:24:29.125Z,98
2017-06-25T07:25:30.157Z,98
2017-06-25T07:26:30.886Z,98
2017-06-25T07:27:31.620Z,98
2017-06-25T07:28:32.357Z,98
2017-06-25T07:29:33.087Z,97
2017-06-25T07:30:34.068Z,97
2017-06-25T07:31:34.801Z,98
2017-06-25T07:32:35.533Z,96
2017-06-25T07:33:36.264Z,97
2017-06-25T07:34:36.997Z,96
2017-06-25T07:35:37.977Z,98
2017-06-25T07:36:38.735Z,98
2017-06-25T07:37:39.468Z,96
2017-06-25T07:38:40.198Z,97
2017-06-25T07:39:40.930Z,97
2017-06-25T07:40:41.914Z,96
2017-06-25T07:41:42.647Z,97
2017-06-25T07:42:43.379Z,97
2017-06-25T07:43:44.113Z,98
2017-06-25T07:44:44.844Z,96
2017-06-25T07:45:45.828Z,96
2017-06-25T07:46:46.582Z,96
2017-06-25T07:47:47.316Z,97
2017-06-25T07:48:48.046Z,96
2017-06-25T07:49:48.801Z,98
2017-06-25T07:50:49.833Z,98
2017-06-25T07:51:50.565Z,98
2017-06-25T07:52:51.295Z,99
2017-06-25T07:53:52.025Z,99
2017-06-25T07:54:52.757Z,100
2017-06-25T07:55:53.791Z,99
2017-06-25T07:56:54.523Z,99
2017-06-25T07:57:55.253Z,99
2017-06-25T07:58:55.982Z,98
2017-06-25T07:59:56.715Z,99
2017-06-25T08:00:57.776Z,98
2017-06-25T08:01:58.507Z,97
2017-06-25T08:02:59.237Z,98
2017-06-25T08:03:59.966Z,98
2017-06-25T08:05:00.699Z,98
2017-06-25T08:06:01.684Z,98
2017-06-25T08:07:02.416Z,98
2017-06-25T08:08:03.149Z,98
2017-06-25T08:09:03.884Z,98
2017-06-25T08:10:04.614Z,98
2017-06-25T08:11:05.596Z,99
2017-06-25T08:12:06.330Z,100
2017-06-25T08:13:07.060Z,100
2017-06-25T08:14:07.793Z,100
2017-06-25T08:15:08.526Z,100
2017-06-25T08:16:09.509Z,100
2017-06-25T08:17:10.241Z,100
2017-06-25T08:18:10.971Z,100
2017-06-25T08:19:11.702Z,100
2017-06-25T08:20:12.434Z,100
2017-06-25T08:21:13.412Z,100
2017-06-25T08:22:14.142Z,100
2017-06-25T08:23:14.873Z,100
2017-06-25T08:24:15.600Z,100
2017-06-25T08:25:16.331Z,100
2017-06-25T08:26:17.312Z,100
2017-06-25T08:27:18.042Z,100
2017-06-25T08:28:18.769Z,100
2017-06-25T08:29:19.500Z,100
2017-06-25T08:30:20.231Z,100
2017-06-25T08:31:21.210Z,100
2017-06-25T08:32:21.935Z,100
2017-06-25T08:33:22.668Z,100
2017-06-25T08:34:23.396Z,100
2017-06-25T08:35:24.123Z,100
2017-06-25T08:36:25.104Z,100
2017-06-25T08:37:25.834Z,100
2017-06-25T08:38:26.563Z,100
2017-06-25T08:39:27.294Z,100
2017-06-25T08:40:28.024Z,100
2017-06-25T08:41:29.004Z,100
2017-06-25T08:42:30.745Z,100
2017-06-25T08:43:31.475Z,100
2017-06-25T08:44:32.207Z,100
2017-06-25T08:45:32.936Z,100
2017-06-25T08:46:33.918Z,100
2017-06-25T08:47:34.650Z,100
2017-06-25T08:48:35.379Z,100
2017-06-25T08:49:36.134Z,100
2017-06-25T08:50:36.863Z,100
2017-06-25T08:51:37.848Z,100
2017-06-25T08:52:38.581Z,100
2017-06-25T08:53:39.311Z,100
2017-06-25T08:54:40.046Z,100
2017-06-25T08:55:40.778Z,100
2017-06-25T08:56:41.758Z,100
2017-06-25T08:57:42.492Z,100
2017-06-25T08:58:43.227Z,100
2017-06-25T08:59:43.959Z,100
2017-06-25T09:00:44.693Z,100
2017-06-25T09:01:45.677Z,100
2017-06-25T09:02:46.410Z,100
2017-06-25T09:03:47.148Z,100
2017-06-25T09:04:47.882Z,100
2017-06-25T09:05:48.619Z,100
2017-06-25T09:06:49.606Z,100
2017-06-25T09:07:50.344Z,100
2017-06-25T09:08:51.081Z,100
2017-06-25T09:09:51.819Z,98
2017-06-25T09:10:52.557Z,98
2017-06-25T09:11:53.548Z,97
2017-06-25T09:12:54.283Z,94
2017-06-25T09:13:55.021Z,90
2017-06-25T09:14:55.758Z,93
2017-06-25T09:15:56.496Z,94
2017-06-25T09:16:57.481Z,94
2017-06-25T09:17:58.237Z,95
2017-06-25T09:18:58.975Z,93
2017-06-25T09:19:59.711Z,94
2017-06-25T09:21:00.444Z,96
2017-06-25T09:22:01.453Z,96
2017-06-25T09:23:02.189Z,98
2017-06-25T09:24:02.998Z,98
2017-06-25T09:25:03.729Z,98
2017-06-25T09:26:04.465Z,98
2017-06-25T09:27:05.448Z,99
2017-06-25T09:28:06.181Z,99
2017-06-25T09:29:06.915Z,100
2017-06-25T09:30:07.673Z,100
2017-06-25T09:31:08.407Z,99
2017-06-25T09:32:09.391Z,100
2017-06-25T09:33:10.126Z,100
2017-06-25T09:34:10.859Z,100
2017-06-25T09:35:11.595Z,100
2017-06-25T09:36:12.331Z,100
2017-06-25T09:37:13.318Z,100
2017-06-25T09:38:14.051Z,99
2017-06-25T09:39:14.786Z,99
2017-06-25T09:40:15.519Z,98
2017-06-25T09:41:16.256Z,99
2017-06-25T09:42:17.241Z,97
2017-06-25T09:43:17.973Z,97
2017-06-25T09:44:18.711Z,97
2017-06-25T09:45:19.446Z,97
2017-06-25T09:46:20.183Z,95
2017-06-25T09:47:21.165Z,97
2017-06-25T09:48:21.899Z,95
2017-06-25T09:49:22.633Z,94
2017-06-25T09:50:23.369Z,95
2017-06-25T09:51:24.103Z,96
2017-06-25T09:52:25.088Z,96
2017-06-25T09:53:25.824Z,94
2017-06-25T09:54:26.560Z,95
2017-06-25T09:55:27.297Z,95
2017-06-25T09:56:28.029Z,95
2017-06-25T09:57:29.015Z,93
2017-06-25T09:58:29.751Z,94
2017-06-25T09:59:30.510Z,94
2017-06-25T10:00:31.243Z,95
2017-06-25T10:01:31.972Z,94
2017-06-25T10:02:33.007Z,96
2017-06-25T10:03:33.741Z,97
2017-06-25T10:04:34.471Z,98
2017-06-25T10:05:35.207Z,99
2017-06-25T10:06:35.941Z,100
2017-06-25T10:07:36.923Z,99
2017-06-25T10:08:37.657Z,100
2017-06-25T10:09:38.388Z,100
2017-06-25T10:10:39.126Z,100
2017-06-25T10:11:39.856Z,100
2017-06-25T10:12:40.840Z,100
2017-06-25T10:13:41.573Z,100
2017-06-25T10:14:42.306Z,100
2017-06-25T10:15:43.040Z,100
2017-06-25T10:16:43.773Z,100
2017-06-25T10:17:44.757Z,100
2017-06-25T10:18:45.493Z,100
2017-06-25T10:19:46.223Z,100
2017-06-25T10:20:46.957Z,100
2017-06-25T10:21:47.691Z,100
2017-06-25T10:22:48.673Z,100
2017-06-25T10:23:49.403Z,100
2017-06-25T10:24:50.136Z,100
2017-06-25T10:25:50.867Z,100
2017-06-25T10:26:51.602Z,100
2017-06-25T10:27:52.583Z,100
2017-06-25T10:28:53.318Z,100
2017-06-25T10:29:54.049Z,100
2017-06-25T10:30:54.781Z,100
2017-06-25T10:31:55.516Z,100
2017-06-25T10:32:56.496Z,100
2017-06-25T10:33:57.228Z,100
2017-06-25T10:34:57.963Z,100
2017-06-25T10:35:58.692Z,100
2017-06-25T10:36:59.423Z,100
2017-06-25T10:38:00.407Z,100
2017-06-25T10:39:01.138Z,100
2017-06-25T10:40:01.872Z,100
2017-06-25T10:41:02.602Z,100
2017-06-25T10:42:03.334Z,100
2017-06-25T10:43:04.319Z,100
2017-06-25T10:44:05.051Z,100
2017-06-25T10:45:05.781Z,100
2017-06-25T10:46:06.515Z,100
2017-06-25T10:47:07.247Z,100
2017-06-25T10:48:08.230Z,100
2017-06-25T10:49:08.962Z,100
2017-06-25T10:50:09.693Z,100
2017-06-25T10:51:10.425Z,100
2017-06-25T10:52:11.157Z,100
2017-06-25T10:53:12.137Z,100
2017-06-25T10:54:12.871Z,100
2017-06-25T10:55:13.604Z,100
2017-06-25T10:56:14.338Z,100
2017-06-25T10:57:15.071Z,100
2017-06-25T10:58:16.054Z,100
2017-06-25T10:59:16.786Z,99
2017-06-25T11:00:17.514Z,99
2017-06-25T11:01:18.244Z,98
2017-06-25T11:02:18.976Z,97
2017-06-25T11:03:19.959Z,97
2017-06-25T11:04:20.720Z,98
2017-06-25T11:05:21.450Z,97
2017-06-25T11:06:22.181Z,95
2017-06-25T11:07:22.912Z,94
2017-06-25T11:08:23.892Z,95
2017-06-25T11:09:24.624Z,96
2017-06-25T11:10:25.354Z,94
2017-06-25T11:11:26.087Z,95
2017-06-25T11:12:26.823Z,94
2017-06-25T11:13:27.803Z,93
2017-06-25T11:14:28.558Z,94
2017-06-25T11:15:29.293Z,91
2017-06-25T11:16:30.026Z,92
2017-06-25T11:17:30.758Z,93
2017-06-25T11:18:31.763Z,91
2017-06-25T11:19:32.496Z,90
2017-06-25T11:20:33.228Z,92
2017-06-25T11:21:33.958Z,90
2017-06-25T11:22:34.693Z,91
2017-06-25T11:23:35.677Z,91
2017-06-25T11:24:36.430Z,90
2017-06-25T11:25:37.187Z,90
2017-06-25T11:26:37.921Z,89
2017-06-25T11:27:38.654Z,89
2017-06-25T11:28:39.638Z,89
2017-06-25T11:29:40.373Z,89
2017-06-25T11:30:41.108Z,89
2017-06-25T11:31:41.842Z,88
2017-06-25T11:32:42.597Z,87
2017-06-25T11:33:43.581Z,87
2017-06-25T11:34:44.317Z,87
2017-06-25T11:35:45.053Z,87
2017-06-25T11:36:45.813Z,85
2017-06-25T11:37:46.549Z,85
2017-06-25T11:38:47.537Z,85
2017-06-25T11:39:48.278Z,86
2017-06-25T11:40:49.019Z,84
2017-06-25T11:41:49.755Z,85
2017-06-25T11:42:50.495Z,84
2017-06-25T11:43:51.480Z,83
2017-06-25T11:44:52.216Z,85
2017-06-25T11:45:52.952Z,85
2017-06-25T11:46:53.691Z,87
2017-06-25T11:47:54.429Z,85
2017-06-25T11:48:55.418Z,85
2017-06-25T11:49:56.153Z,85
2017-06-25T11:50:56.889Z,85
2017-06-25T11:51:57.625Z,87
2017-06-25T11:52:58.363Z,87
2017-06-25T11:53:59.347Z,88
2017-06-25T11:55:00.081Z,87
2017-06-25T11:56:00.817Z,85
2017-06-25T11:57:01.552Z,86
2017-06-25T11:58:02.285Z,86
2017-06-25T11:59:03.292Z,87
2017-06-25T12:00:04.022Z,85
2017-06-25T12:01:04.758Z,86
2017-06-25T12:02:05.492Z,86
2017-06-25T12:03:06.224Z,86
2017-06-25T12:04:07.204Z,85
2017-06-25T12:05:07.936Z,86
2017-06-25T12:06:08.670Z,86
2017-06-25T12:07:09.402Z,86
2017-06-25T12:08:10.136Z,85
2017-06-25T12:09:11.123Z,86
2017-06-25T12:10:11.854Z,85
2017-06-25T12:11:12.586Z,85
2017-06-25T12:12:13.318Z,85
2017-06-25T12:13:14.049Z,85
2017-06-25T12:14:15.059Z,85
2017-06-25T12:15:15.791Z,86
2017-06-25T12:16:16.524Z,85
2017-06-25T12:17:17.279Z,85
2017-06-25T12:18:18.010Z,85
2017-06-25T12:19:18.995Z,86
2017-06-25T12:20:19.728Z,85
2017-06-25T12:21:20.461Z,86
2017-06-25T12:22:21.198Z,85
2017-06-25T12:23:21.957Z,86
2017-06-25T12:24:22.938Z,85
2017-06-25T12:25:23.694Z,85
2017-06-25T12:26:24.432Z,85
2017-06-25T12:27:25.165Z,85
2017-06-25T12:28:25.897Z,86
2017-06-25T12:29:26.883Z,85
2017-06-25T12:30:27.617Z,85
2017-06-25T12:31:28.344Z,85
2017-06-25T12:32:29.082Z,85
2017-06-25T12:33:29.819Z,85
2017-06-25T12:34:30.802Z,84
2017-06-25T12:35:31.533Z,84
2017-06-25T12:36:32.268Z,85
2017-06-25T12:37:32.999Z,85
2017-06-25T12:38:33.732Z,85
2017-06-25T12:39:34.714Z,85
2017-06-25T12:40:35.450Z,85
2017-06-25T12:41:36.181Z,85
2017-06-25T12:42:36.914Z,85
2017-06-25T12:43:37.669Z,84
2017-06-25T12:44:38.705Z,84
2017-06-25T12:45:39.462Z,85
2017-06-25T12:46:40.195Z,85
2017-06-25T12:47:40.926Z,85
2017-06-25T12:48:41.659Z,84
2017-06-25T12:49:42.645Z,85
2017-06-25T12:50:43.399Z,85
2017-06-25T12:51:44.133Z,85
2017-06-25T12:52:44.866Z,84
2017-06-25T12:53:45.598Z,85
2017-06-25T12:54:46.604Z,86
2017-06-25T12:55:47.338Z,86
2017-06-25T12:56:48.072Z,88
2017-06-25T12:57:48.802Z,89
2017-06-25T12:58:49.533Z,89
2017-06-25T12:59:50.517Z,91
2017-06-25T13:00:51.249Z,92
2017-06-25T13:01:51.980Z,94
2017-06-25T13:02:52.714Z,95
2017-06-25T13:03:53.445Z,94
2017-06-25T13:04:54.428Z,96
2017-06-25T13:05:55.159Z,97
2017-06-25T13:06:55.890Z,98
2017-06-25T13:07:56.622Z,98
2017-06-25T13:08:57.353Z,97
2017-06-25T13:09:58.335Z,96
2017-06-25T13:10:59.076Z,97
2017-06-25T13:11:59.795Z,98
2017-06-25T13:13:00.529Z,97
2017-06-25T13:14:01.283Z,95
2017-06-25T13:15:02.265Z,97
2017-06-25T13:16:02.996Z,99
2017-06-25T13:17:03.727Z,100
2017-06-25T13:18:04.457Z,100
2017-06-25T13:19:05.189Z,100
2017-06-25T13:20:06.169Z,100
2017-06-25T13:21:06.902Z,100
2017-06-25T13:22:07.635Z,100
2017-06-25T13:23:08.363Z,100
2017-06-25T13:24:09.093Z,100
2017-06-25T13:25:10.078Z,100
2017-06-25T13:26:10.804Z,100
2017-06-25T13:27:11.535Z,100
2017-06-25T13:28:12.268Z,100
2017-06-25T13:29:13.001Z,100
2017-06-25T13:30:13.984Z,100
2017-06-25T13:31:14.714Z,100
2017-06-25T13:32:15.445Z,100
2017-06-25T13:33:16.177Z,100
2017-06-25T13:34:16.909Z,100
2017-06-25T13:35:17.890Z,100
2017-06-25T13:36:18.624Z,100
2017-06-25T13:37:19.356Z,100
2017-06-25T13:38:20.093Z,100
2017-06-25T13:39:20.822Z,99
2017-06-25T13:40:22.353Z,98
2017-06-25T13:41:23.087Z,98
2017-06-25T13:42:23.817Z,98
2017-06-25T13:43:24.548Z,96
2017-06-25T13:44:25.283Z,98
2017-06-25T13:45:26.263Z,95
2017-06-25T13:46:26.994Z,96
2017-06-25T13:47:27.724Z,95
2017-06-25T13:48:28.452Z,94
2017-06-25T13:49:29.182Z,94
2017-06-25T13:50:30.163Z,94
2017-06-25T13:51:30.893Z,94
2017-06-25T13:52:31.621Z,95
2017-06-25T13:53:32.350Z,95
2017-06-25T13:54:33.085Z,94
2017-06-25T13:55:34.064Z,95
2017-06-25T13:56:34.798Z,96
2017-06-25T13:57:35.532Z,96
2017-06-25T13:58:36.261Z,95
2017-06-25T13:59:36.994Z,95
2017-06-25T14:00:37.979Z,96
2017-06-25T14:01:38.705Z,96
2017-06-25T14:02:39.436Z,95
2017-06-25T14:03:40.169Z,96
2017-06-25T14:04:40.900Z,95
2017-06-25T14:05:41.881Z,95
2017-06-25T14:06:42.610Z,95
2017-06-25T14:07:43.343Z,96